sensor_id;sensor_type;location;lat;lon;timestamp;pressure;altitude;pressure_sealevel;temperature;humidity
48926;BME280;39838;59.938;30.642;2022-07-30T00:02:14;100622.47;;;15.72;72.90
48926;BME280;39838;59.938;30.642;2022-07-30T00:04:42;100625.13;;;15.69;72.96
48926;BME280;39838;59.938;30.642;2022-07-30T00:07:09;100619.94;;;15.68;73.27
48926;BME280;39838;59.938;30.642;2022-07-30T00:09:36;100617.38;;;15.65;73.39
48926;BME280;39838;59.938;30.642;2022-07-30T00:12:05;100617.44;;;15.60;73.51
48926;BME280;39838;59.938;30.642;2022-07-30T00:14:33;100613.09;;;15.59;73.59
48926;BME280;39838;59.938;30.642;2022-07-30T00:17:01;100615.72;;;15.57;73.58
48926;BME280;39838;59.938;30.642;2022-07-30T00:19:28;100620.94;;;15.57;73.77
48926;BME280;39838;59.938;30.642;2022-07-30T00:21:55;100625.31;;;15.57;73.42
48926;BME280;39838;59.938;30.642;2022-07-30T00:24:22;100614.88;;;15.55;73.75
48926;BME280;39838;59.938;30.642;2022-07-30T00:26:49;100613.13;;;15.56;73.59
48926;BME280;39838;59.938;30.642;2022-07-30T00:29:18;100608.81;;;15.53;73.77
48926;BME280;39838;59.938;30.642;2022-07-30T00:31:45;100610.53;;;15.54;73.51
48926;BME280;39838;59.938;30.642;2022-07-30T00:34:12;100611.41;;;15.55;73.79
48926;BME280;39838;59.938;30.642;2022-07-30T00:36:39;100588.09;;;15.41;73.73
48926;BME280;39838;59.938;30.642;2022-07-30T00:39:06;100614.03;;;15.55;73.79
48926;BME280;39838;59.938;30.642;2022-07-30T00:41:33;100612.25;;;15.55;73.84
48926;BME280;39838;59.938;30.642;2022-07-30T00:44:02;100606.16;;;15.55;73.88
48926;BME280;39838;59.938;30.642;2022-07-30T00:46:31;100606.16;;;15.55;73.97
48926;BME280;39838;59.938;30.642;2022-07-30T00:48:58;100613.13;;;15.56;73.41
48926;BME280;39838;59.938;30.642;2022-07-30T00:51:25;100607.88;;;15.56;73.62
48926;BME280;39838;59.938;30.642;2022-07-30T00:53:52;100607.00;;;15.57;73.87
48926;BME280;39838;59.938;30.642;2022-07-30T00:56:20;100606.13;;;15.58;73.94
48926;BME280;39838;59.938;30.642;2022-07-30T00:58:47;100608.75;;;15.58;73.76
48926;BME280;39838;59.938;30.642;2022-07-30T01:01:14;100599.94;;;15.61;73.97
48926;BME280;39838;59.938;30.642;2022-07-30T01:03:42;100605.19;;;15.62;73.86
48926;BME280;39838;59.938;30.642;2022-07-30T01:06:09;100599.91;;;15.64;73.99
48926;BME280;39838;59.938;30.642;2022-07-30T01:08:36;100601.66;;;15.65;73.92
48926;BME280;39838;59.938;30.642;2022-07-30T01:11:04;100599.91;;;15.65;73.75
48926;BME280;39838;59.938;30.642;2022-07-30T01:13:31;100606.88;;;15.66;74.03
48926;BME280;39838;59.938;30.642;2022-07-30T01:15:58;100606.00;;;15.66;74.02
48926;BME280;39838;59.938;30.642;2022-07-30T01:18:25;100599.06;;;15.65;73.97
48926;BME280;39838;59.938;30.642;2022-07-30T01:21:18;100574.00;;;15.48;74.18
48926;BME280;39838;59.938;30.642;2022-07-30T01:23:46;100574.03;;;15.47;74.13
48926;BME280;39838;59.938;30.642;2022-07-30T01:26:18;100599.94;;;15.62;74.14
48926;BME280;39838;59.938;30.642;2022-07-30T01:28:49;100591.28;;;15.59;74.65
48926;BME280;39838;59.938;30.642;2022-07-30T01:31:18;100594.69;;;15.64;74.50
48926;BME280;39838;59.938;30.642;2022-07-30T01:33:47;100603.41;;;15.64;74.74
48926;BME280;39838;59.938;30.642;2022-07-30T01:36:17;100595.53;;;15.64;74.68
48926;BME280;39838;59.938;30.642;2022-07-30T01:38:48;100599.94;;;15.62;74.99
48926;BME280;39838;59.938;30.642;2022-07-30T01:41:18;100601.66;;;15.63;75.04
48926;BME280;39838;59.938;30.642;2022-07-30T01:43:46;100590.31;;;15.64;74.88
48926;BME280;39838;59.938;30.642;2022-07-30T01:46:14;100603.41;;;15.64;75.10
48926;BME280;39838;59.938;30.642;2022-07-30T01:48:42;100564.47;;;15.46;74.85
48926;BME280;39838;59.938;30.642;2022-07-30T01:51:12;100584.25;;;15.61;75.13
48926;BME280;39838;59.938;30.642;2022-07-30T01:53:40;100589.44;;;15.64;74.90
48926;BME280;39838;59.938;30.642;2022-07-30T01:56:11;100591.19;;;15.63;75.02
48926;BME280;39838;59.938;30.642;2022-07-30T01:58:41;100586.84;;;15.62;74.94
48926;BME280;39838;59.938;30.642;2022-07-30T02:01:09;100587.72;;;15.61;75.11
48926;BME280;39838;59.938;30.642;2022-07-30T02:03:36;100584.19;;;15.64;74.88
48926;BME280;39838;59.938;30.642;2022-07-30T02:06:08;100579.88;;;15.61;75.23
48926;BME280;39838;59.938;30.642;2022-07-30T02:08:40;100555.72;;;15.47;74.89
48926;BME280;39838;59.938;30.642;2022-07-30T02:11:10;100587.72;;;15.63;74.95
48926;BME280;39838;59.938;30.642;2022-07-30T02:13:44;100596.44;;;15.63;75.06
48926;BME280;39838;59.938;30.642;2022-07-30T02:16:14;100586.16;;;15.52;74.88
48926;BME280;39838;59.938;30.642;2022-07-30T02:18:49;100592.19;;;15.56;74.83
48926;BME280;39838;59.938;30.642;2022-07-30T02:21:22;100564.50;;;15.43;74.63
48926;BME280;39838;59.938;30.642;2022-07-30T02:23:51;100595.66;;;15.58;74.45
48926;BME280;39838;59.938;30.642;2022-07-30T02:26:23;100590.47;;;15.55;74.70
48926;BME280;39838;59.938;30.642;2022-07-30T02:28:56;100583.50;;;15.54;74.75
48926;BME280;39838;59.938;30.642;2022-07-30T02:31:27;100588.78;;;15.51;74.82
48926;BME280;39838;59.938;30.642;2022-07-30T02:33:57;100589.72;;;15.48;75.03
48926;BME280;39838;59.938;30.642;2022-07-30T02:36:25;100590.63;;;15.46;75.32
48926;BME280;39838;59.938;30.642;2022-07-30T02:38:53;100593.28;;;15.43;75.19
48926;BME280;39838;59.938;30.642;2022-07-30T02:41:22;100591.66;;;15.39;75.59
48926;BME280;39838;59.938;30.642;2022-07-30T02:43:52;100589.94;;;15.36;75.72
48926;BME280;39838;59.938;30.642;2022-07-30T02:46:22;100588.28;;;15.32;75.98
48926;BME280;39838;59.938;30.642;2022-07-30T02:48:50;100598.72;;;15.34;75.88
48926;BME280;39838;59.938;30.642;2022-07-30T02:51:20;100581.38;;;15.26;76.00
48926;BME280;39838;59.938;30.642;2022-07-30T02:53:48;100564.97;;;15.18;75.77
48926;BME280;39838;59.938;30.642;2022-07-30T02:56:18;100545.16;;;15.03;75.63
48926;BME280;39838;59.938;30.642;2022-07-30T02:58:48;100578.81;;;15.23;75.12
48926;BME280;39838;59.938;30.642;2022-07-30T03:01:18;100599.50;;;15.37;75.68
48926;BME280;39838;59.938;30.642;2022-07-30T03:03:47;100609.03;;;15.41;75.46
48926;BME280;39838;59.938;30.642;2022-07-30T03:06:16;100604.66;;;15.42;75.48
48926;BME280;39838;59.938;30.642;2022-07-30T03:08:45;100595.91;;;15.43;75.40
48926;BME280;39838;59.938;30.642;2022-07-30T03:11:12;100592.41;;;15.45;75.47
48926;BME280;39838;59.938;30.642;2022-07-30T03:13:42;100590.63;;;15.46;75.22
48926;BME280;39838;59.938;30.642;2022-07-30T03:16:09;100583.69;;;15.45;75.08
48926;BME280;39838;59.938;30.642;2022-07-30T03:18:41;100590.63;;;15.44;75.01
48926;BME280;39838;59.938;30.642;2022-07-30T03:21:09;100575.91;;;15.40;75.12
48926;BME280;39838;59.938;30.642;2022-07-30T03:23:38;100586.31;;;15.45;75.16
48926;BME280;39838;59.938;30.642;2022-07-30T03:26:07;100595.88;;;15.46;74.83
48926;BME280;39838;59.938;30.642;2022-07-30T03:28:36;100588.03;;;15.44;74.86
48926;BME280;39838;59.938;30.642;2022-07-30T03:31:05;100602.88;;;15.44;74.88
48926;BME280;39838;59.938;30.642;2022-07-30T03:33:34;100591.53;;;15.43;74.89
48926;BME280;39838;59.938;30.642;2022-07-30T03:36:04;100596.81;;;15.42;75.09
48926;BME280;39838;59.938;30.642;2022-07-30T03:38:31;100595.06;;;15.42;75.03
48926;BME280;39838;59.938;30.642;2022-07-30T03:40:59;100590.69;;;15.43;74.91
48926;BME280;39838;59.938;30.642;2022-07-30T03:43:27;100590.63;;;15.44;74.99
48926;BME280;39838;59.938;30.642;2022-07-30T03:45:56;100591.53;;;15.45;74.87
48926;BME280;39838;59.938;30.642;2022-07-30T03:48:24;100600.13;;;15.51;75.01
48926;BME280;39838;59.938;30.642;2022-07-30T03:50:52;100595.75;;;15.52;74.92
48926;BME280;39838;59.938;30.642;2022-07-30T03:53:22;100595.56;;;15.61;74.87
48926;BME280;39838;59.938;30.642;2022-07-30T03:55:50;100602.47;;;15.68;74.76
48926;BME280;39838;59.938;30.642;2022-07-30T03:58:17;100593.63;;;15.74;74.48
48926;BME280;39838;59.938;30.642;2022-07-30T04:00:47;100597.72;;;15.87;74.26
48926;BME280;39838;59.938;30.642;2022-07-30T04:03:23;100602.81;;;15.95;73.95
48926;BME280;39838;59.938;30.642;2022-07-30T04:05:50;100597.34;;;16.05;73.78
48926;BME280;39838;59.938;30.642;2022-07-30T04:08:22;100586.72;;;16.11;73.27
48926;BME280;39838;59.938;30.642;2022-07-30T04:10:49;100600.34;;;16.29;72.71
48926;BME280;39838;59.938;30.642;2022-07-30T04:13:17;100609.66;;;16.42;71.69
48926;BME280;39838;59.938;30.642;2022-07-30T04:15:59;100565.75;;;16.13;71.33
48926;BME280;39838;59.938;30.642;2022-07-30T04:18:30;100567.94;;;16.31;70.96
48926;BME280;39838;59.938;30.642;2022-07-30T04:21:02;100600.63;;;16.55;70.88
48926;BME280;39838;59.938;30.642;2022-07-30T04:23:47;100560.91;;;16.33;70.49
48926;BME280;39838;59.938;30.642;2022-07-30T04:26:37;100596.78;;;16.70;70.19
48926;BME280;39838;59.938;30.642;2022-07-30T04:29:07;100561.09;;;16.63;70.07
48926;BME280;39838;59.938;30.642;2022-07-30T04:31:35;100583.16;;;16.91;69.69
48926;BME280;39838;59.938;30.642;2022-07-30T04:34:03;100585.56;;;17.01;69.25
48926;BME280;39838;59.938;30.642;2022-07-30T04:36:31;100578.41;;;17.07;68.80
48926;BME280;39838;59.938;30.642;2022-07-30T04:39:00;100598.09;;;17.24;68.50
48926;BME280;39838;59.938;30.642;2022-07-30T04:41:27;100593.56;;;17.30;68.09
48926;BME280;39838;59.938;30.642;2022-07-30T04:43:54;100588.03;;;17.39;68.18
48926;BME280;39838;59.938;30.642;2022-07-30T04:46:22;100592.44;;;17.39;67.58
48926;BME280;39838;59.938;30.642;2022-07-30T04:48:49;100590.81;;;17.35;67.63
48926;BME280;39838;59.938;30.642;2022-07-30T04:51:21;100585.69;;;17.30;67.66
48926;BME280;39838;59.938;30.642;2022-07-30T04:53:50;100592.53;;;17.36;67.46
48926;BME280;39838;59.938;30.642;2022-07-30T04:56:21;100584.88;;;17.27;67.68
48926;BME280;39838;59.938;30.642;2022-07-30T04:58:49;100569.47;;;17.13;67.47
48926;BME280;39838;59.938;30.642;2022-07-30T05:01:21;100588.56;;;17.19;67.72
48926;BME280;39838;59.938;30.642;2022-07-30T05:03:50;100594.63;;;17.23;68.14
48926;BME280;39838;59.938;30.642;2022-07-30T05:06:18;100585.84;;;17.24;68.17
48926;BME280;39838;59.938;30.642;2022-07-30T05:08:45;100590.97;;;17.29;68.02
48926;BME280;39838;59.938;30.642;2022-07-30T05:11:13;100592.66;;;17.31;67.80
48926;BME280;39838;59.938;30.642;2022-07-30T05:13:42;100595.13;;;17.37;67.41
48926;BME280;39838;59.938;30.642;2022-07-30T05:16:09;100597.72;;;17.37;67.30
48926;BME280;39838;59.938;30.642;2022-07-30T05:18:37;100589.75;;;17.40;67.19
48926;BME280;39838;59.938;30.642;2022-07-30T05:21:05;100595.22;;;17.33;66.98
48926;BME280;39838;59.938;30.642;2022-07-30T05:23:32;100593.19;;;17.44;66.83
48926;BME280;39838;59.938;30.642;2022-07-30T05:26:00;100588.47;;;17.57;66.75
48926;BME280;39838;59.938;30.642;2022-07-30T05:28:28;100590.69;;;17.72;66.39
48926;BME280;39838;59.938;30.642;2022-07-30T05:30:56;100602.84;;;17.76;66.25
48926;BME280;39838;59.938;30.642;2022-07-30T05:33:23;100600.81;;;17.86;65.94
48926;BME280;39838;59.938;30.642;2022-07-30T05:35:50;100607.66;;;17.91;65.59
48926;BME280;39838;59.938;30.642;2022-07-30T05:38:17;100601.38;;;17.97;65.28
48926;BME280;39838;59.938;30.642;2022-07-30T05:40:44;100591.72;;;17.97;65.27
48926;BME280;39838;59.938;30.642;2022-07-30T05:43:12;100602.88;;;18.06;64.95
48926;BME280;39838;59.938;30.642;2022-07-30T05:45:39;100595.53;;;18.17;65.03
48926;BME280;39838;59.938;30.642;2022-07-30T05:48:07;100593.47;;;18.26;64.86
48926;BME280;39838;59.938;30.642;2022-07-30T05:50:34;100595.69;;;18.40;64.25
48926;BME280;39838;59.938;30.642;2022-07-30T05:53:40;100588.53;;;18.45;63.75
48926;BME280;39838;59.938;30.642;2022-07-30T05:56:00;100588.41;;;18.48;63.39
48926;BME280;39838;59.938;30.642;2022-07-30T05:58:27;100591.25;;;18.42;63.51
48926;BME280;39838;59.938;30.642;2022-07-30T06:00:55;100597.81;;;18.29;64.12
48926;BME280;39838;59.938;30.642;2022-07-30T06:03:23;100616.53;;;18.18;64.99
48926;BME280;39838;59.938;30.642;2022-07-30T06:05:51;100599.59;;;17.97;66.44
48926;BME280;39838;59.938;30.642;2022-07-30T06:08:21;100613.09;;;17.85;67.36
48926;BME280;39838;59.938;30.642;2022-07-30T06:10:48;100627.38;;;17.77;68.16
48926;BME280;39838;59.938;30.642;2022-07-30T06:13:15;100612.47;;;17.77;68.71
48926;BME280;39838;59.938;30.642;2022-07-30T06:15:42;100628.97;;;17.82;68.83
48926;BME280;39838;59.938;30.642;2022-07-30T06:18:10;100626.44;;;17.78;68.95
48926;BME280;39838;59.938;30.642;2022-07-30T06:20:39;100622.22;;;17.72;69.31
48926;BME280;39838;59.938;30.642;2022-07-30T06:23:06;100632.75;;;17.70;69.50
48926;BME280;39838;59.938;30.642;2022-07-30T06:25:33;100635.38;;;17.72;69.63
48926;BME280;39838;59.938;30.642;2022-07-30T06:28:00;100634.44;;;17.73;69.36
48926;BME280;39838;59.938;30.642;2022-07-30T06:30:33;100622.22;;;17.72;69.26
48926;BME280;39838;59.938;30.642;2022-07-30T06:33:00;100631.03;;;17.69;69.80
48926;BME280;39838;59.938;30.642;2022-07-30T06:35:27;100623.94;;;17.73;69.75
48926;BME280;39838;59.938;30.642;2022-07-30T06:37:56;100629.69;;;17.87;69.64
48926;BME280;39838;59.938;30.642;2022-07-30T06:40:23;100628.34;;;18.04;69.46
48926;BME280;39838;59.938;30.642;2022-07-30T06:42:50;100627.94;;;18.17;69.04
48926;BME280;39838;59.938;30.642;2022-07-30T06:45:17;100636.97;;;18.09;69.36
48926;BME280;39838;59.938;30.642;2022-07-30T06:47:44;100638.03;;;18.01;69.51
48926;BME280;39838;59.938;30.642;2022-07-30T06:50:11;100633.69;;;18.00;70.13
48926;BME280;39838;59.938;30.642;2022-07-30T06:52:38;100635.34;;;18.05;70.16
48926;BME280;39838;59.938;30.642;2022-07-30T06:55:07;100629.72;;;18.17;70.19
48926;BME280;39838;59.938;30.642;2022-07-30T06:57:34;100643.22;;;18.34;69.94
48926;BME280;39838;59.938;30.642;2022-07-30T07:00:02;100635.09;;;18.42;69.00
48926;BME280;39838;59.938;30.642;2022-07-30T07:02:30;100639.38;;;18.46;68.92
48926;BME280;39838;59.938;30.642;2022-07-30T07:04:57;100636.63;;;18.49;68.60
48926;BME280;39838;59.938;30.642;2022-07-30T07:07:24;100647.06;;;18.52;68.45
48926;BME280;39838;59.938;30.642;2022-07-30T07:09:51;100646.28;;;18.48;68.15
48926;BME280;39838;59.938;30.642;2022-07-30T07:12:20;100650.38;;;18.59;68.02
48926;BME280;39838;59.938;30.642;2022-07-30T07:14:47;100630.13;;;18.61;68.01
48926;BME280;39838;59.938;30.642;2022-07-30T07:17:14;100630.88;;;18.66;67.75
48926;BME280;39838;59.938;30.642;2022-07-30T07:19:42;100635.16;;;18.70;66.93
48926;BME280;39838;59.938;30.642;2022-07-30T07:22:09;100650.91;;;18.71;66.74
48926;BME280;39838;59.938;30.642;2022-07-30T07:24:36;100633.56;;;18.64;66.82
48926;BME280;39838;59.938;30.642;2022-07-30T07:27:03;100632.88;;;18.58;66.94
48926;BME280;39838;59.938;30.642;2022-07-30T07:29:32;100637.31;;;18.55;67.61
48926;BME280;39838;59.938;30.642;2022-07-30T07:31:59;100637.59;;;18.46;67.11
48926;BME280;39838;59.938;30.642;2022-07-30T07:34:26;100633.31;;;18.42;67.05
48926;BME280;39838;59.938;30.642;2022-07-30T07:36:53;100630.63;;;18.45;67.09
48926;BME280;39838;59.938;30.642;2022-07-30T07:39:20;100641.81;;;18.52;66.59
48926;BME280;39838;59.938;30.642;2022-07-30T07:41:47;100633.56;;;18.63;66.60
48926;BME280;39838;59.938;30.642;2022-07-30T07:44:14;100629.34;;;18.87;66.46
48926;BME280;39838;59.938;30.642;2022-07-30T07:46:43;100633.66;;;19.16;66.18
48926;BME280;39838;59.938;30.642;2022-07-30T07:49:10;100627.16;;;19.52;64.55
48926;BME280;39838;59.938;30.642;2022-07-30T07:51:37;100633.84;;;19.87;63.04
48926;BME280;39838;59.938;30.642;2022-07-30T07:54:04;100622.09;;;19.96;61.75
48926;BME280;39838;59.938;30.642;2022-07-30T07:56:31;100619.69;;;20.13;61.60
48926;BME280;39838;59.938;30.642;2022-07-30T07:58:58;100616.88;;;20.18;61.38
48926;BME280;39838;59.938;30.642;2022-07-30T08:01:26;100624.84;;;20.16;61.16
48926;BME280;39838;59.938;30.642;2022-07-30T08:03:54;100631.38;;;20.06;60.79
48926;BME280;39838;59.938;30.642;2022-07-30T08:06:21;100629.41;;;19.88;61.46
48926;BME280;39838;59.938;30.642;2022-07-30T08:08:49;100624.50;;;19.79;62.08
48926;BME280;39838;59.938;30.642;2022-07-30T08:11:16;100626.00;;;19.61;62.93
48926;BME280;39838;59.938;30.642;2022-07-30T08:13:43;100633.44;;;19.48;63.96
48926;BME280;39838;59.938;30.642;2022-07-30T08:16:10;100627.78;;;19.34;64.36
48926;BME280;39838;59.938;30.642;2022-07-30T08:18:39;100629.69;;;19.29;64.58
48926;BME280;39838;59.938;30.642;2022-07-30T08:21:08;100632.91;;;19.12;65.56
48926;BME280;39838;59.938;30.642;2022-07-30T08:23:35;100626.78;;;19.12;65.80
48926;BME280;39838;59.938;30.642;2022-07-30T08:26:02;100633.66;;;19.16;65.60
48926;BME280;39838;59.938;30.642;2022-07-30T08:28:29;100640.69;;;19.15;66.27
48926;BME280;39838;59.938;30.642;2022-07-30T08:30:56;100633.84;;;19.09;65.88
48926;BME280;39838;59.938;30.642;2022-07-30T08:33:23;100638.47;;;19.03;66.77
48926;BME280;39838;59.938;30.642;2022-07-30T08:35:50;100633.50;;;18.94;66.94
48926;BME280;39838;59.938;30.642;2022-07-30T08:38:19;100641.47;;;18.92;67.45
48926;BME280;39838;59.938;30.642;2022-07-30T08:40:46;100637.66;;;19.01;67.76
48926;BME280;39838;59.938;30.642;2022-07-30T08:43:14;100633.97;;;19.33;66.86
48926;BME280;39838;59.938;30.642;2022-07-30T08:45:42;100628.69;;;19.59;66.61
48926;BME280;39838;59.938;30.642;2022-07-30T08:48:10;100634.22;;;19.77;65.64
48926;BME280;39838;59.938;30.642;2022-07-30T08:50:39;100630.41;;;19.85;65.37
48926;BME280;39838;59.938;30.642;2022-07-30T08:53:06;100632.84;;;19.90;64.33
48926;BME280;39838;59.938;30.642;2022-07-30T08:55:35;100628.72;;;19.83;64.29
48926;BME280;39838;59.938;30.642;2022-07-30T08:58:04;100632.03;;;19.65;64.57
48926;BME280;39838;59.938;30.642;2022-07-30T09:00:31;100634.59;;;19.66;65.18
48926;BME280;39838;59.938;30.642;2022-07-30T09:02:59;100635.25;;;19.73;64.57
48926;BME280;39838;59.938;30.642;2022-07-30T09:05:27;100632.84;;;19.90;64.15
48926;BME280;39838;59.938;30.642;2022-07-30T09:07:54;100636.53;;;20.09;63.58
48926;BME280;39838;59.938;30.642;2022-07-30T09:10:22;100631.97;;;20.14;62.13
48926;BME280;39838;59.938;30.642;2022-07-30T09:12:51;100628.47;;;20.14;61.95
48926;BME280;39838;59.938;30.642;2022-07-30T09:15:19;100641.59;;;20.15;60.98
48926;BME280;39838;59.938;30.642;2022-07-30T09:17:54;100640.84;;;20.12;61.05
48926;BME280;39838;59.938;30.642;2022-07-30T09:20:27;100636.81;;;20.25;61.22
48926;BME280;39838;59.938;30.642;2022-07-30T09:22:56;100642.47;;;20.38;60.94
48926;BME280;39838;59.938;30.642;2022-07-30T09:25:34;100625.16;;;20.31;60.14
48926;BME280;39838;59.938;30.642;2022-07-30T09:28:04;100634.47;;;20.41;59.96
48926;BME280;39838;59.938;30.642;2022-07-30T09:30:47;100635.25;;;20.43;60.43
48926;BME280;39838;59.938;30.642;2022-07-30T09:33:33;100625.19;;;20.54;60.43
48926;BME280;39838;59.938;30.642;2022-07-30T09:36:02;100629.38;;;20.60;59.29
48926;BME280;39838;59.938;30.642;2022-07-30T09:38:41;100620.41;;;20.64;59.23
48926;BME280;39838;59.938;30.642;2022-07-30T09:41:09;100617.81;;;20.84;58.52
48926;BME280;39838;59.938;30.642;2022-07-30T09:43:43;100618.44;;;20.91;57.94
48926;BME280;39838;59.938;30.642;2022-07-30T09:46:10;100616.28;;;21.01;58.35
48926;BME280;39838;59.938;30.642;2022-07-30T09:48:38;100631.81;;;21.08;56.75
48926;BME280;39838;59.938;30.642;2022-07-30T09:51:05;100624.69;;;21.10;57.23
48926;BME280;39838;59.938;30.642;2022-07-30T09:53:33;100622.16;;;21.29;57.12
48926;BME280;39838;59.938;30.642;2022-07-30T09:56:01;100624.31;;;21.40;56.86
48926;BME280;39838;59.938;30.642;2022-07-30T09:58:49;100622.63;;;21.39;55.72
48926;BME280;39838;59.938;30.642;2022-07-30T10:01:19;100647.59;;;21.52;54.76
48926;BME280;39838;59.938;30.642;2022-07-30T10:03:46;100634.13;;;21.38;54.71
48926;BME280;39838;59.938;30.642;2022-07-30T10:06:13;100639.94;;;21.24;54.57
48926;BME280;39838;59.938;30.642;2022-07-30T10:08:41;100646.91;;;21.05;55.43
48926;BME280;39838;59.938;30.642;2022-07-30T10:11:10;100622.97;;;20.65;56.03
48926;BME280;39838;59.938;30.642;2022-07-30T10:13:39;100648.09;;;20.54;56.18
48926;BME280;39838;59.938;30.642;2022-07-30T10:16:08;100639.59;;;20.45;56.28
48926;BME280;39838;59.938;30.642;2022-07-30T10:18:35;100642.84;;;20.52;56.48
48926;BME280;39838;59.938;30.642;2022-07-30T10:21:03;100641.94;;;20.53;56.41
48926;BME280;39838;59.938;30.642;2022-07-30T10:23:32;100657.59;;;20.58;56.58
48926;BME280;39838;59.938;30.642;2022-07-30T10:26:01;100648.75;;;20.59;55.54
48926;BME280;39838;59.938;30.642;2022-07-30T10:28:29;100644.34;;;20.81;56.17
48926;BME280;39838;59.938;30.642;2022-07-30T10:30:57;100660.97;;;21.05;55.43
48926;BME280;39838;59.938;30.642;2022-07-30T10:33:28;100656.19;;;20.93;55.28
48926;BME280;39838;59.938;30.642;2022-07-30T10:35:56;100670.75;;;20.81;54.88
48926;BME280;39838;59.938;30.642;2022-07-30T10:38:27;100669.53;;;20.90;55.13
48926;BME280;39838;59.938;30.642;2022-07-30T10:40:59;100671.84;;;20.97;54.10
48926;BME280;39838;59.938;30.642;2022-07-30T10:43:52;100665.47;;;21.03;53.55
48926;BME280;39838;59.938;30.642;2022-07-30T10:46:33;100670.66;;;21.26;53.67
48926;BME280;39838;59.938;30.642;2022-07-30T10:49:12;100664.78;;;21.42;52.98
48926;BME280;39838;59.938;30.642;2022-07-30T10:51:44;100658.97;;;21.54;52.61
48926;BME280;39838;59.938;30.642;2022-07-30T10:54:38;100669.06;;;21.65;51.66
48926;BME280;39838;59.938;30.642;2022-07-30T10:57:09;100676.75;;;21.71;52.36
48926;BME280;39838;59.938;30.642;2022-07-30T11:00:12;100687.41;;;21.69;52.38
48926;BME280;39838;59.938;30.642;2022-07-30T11:06:29;100728.56;;;20.65;55.68
48926;BME280;39838;59.938;30.642;2022-07-30T11:12:12;100723.34;;;19.66;60.17
48926;BME280;39838;59.938;30.642;2022-07-30T11:15:01;100704.50;;;19.51;60.74
48926;BME280;39838;59.938;30.642;2022-07-30T11:18:00;100719.47;;;19.49;61.42
48926;BME280;39838;59.938;30.642;2022-07-30T11:20:31;100728.72;;;19.62;60.70
48926;BME280;39838;59.938;30.642;2022-07-30T11:23:34;100704.72;;;19.70;60.94
48926;BME280;39838;59.938;30.642;2022-07-30T11:25:59;100717.56;;;19.81;60.47
48926;BME280;39838;59.938;30.642;2022-07-30T11:28:36;100721.63;;;19.89;59.52
48926;BME280;39838;59.938;30.642;2022-07-30T11:31:28;100704.88;;;19.92;59.02
48926;BME280;39838;59.938;30.642;2022-07-30T11:34:24;100710.28;;;19.87;58.95
48926;BME280;39838;59.938;30.642;2022-07-30T11:37:04;100725.97;;;19.92;59.43
48926;BME280;39838;59.938;30.642;2022-07-30T11:40:07;100723.97;;;19.99;59.23
48926;BME280;39838;59.938;30.642;2022-07-30T11:42:40;100715.16;;;19.98;59.37
48926;BME280;39838;59.938;30.642;2022-07-30T11:45:24;100694.53;;;19.86;59.38
48926;BME280;39838;59.938;30.642;2022-07-30T11:47:58;100711.72;;;19.96;58.60
48926;BME280;39838;59.938;30.642;2022-07-30T11:50:31;100724.47;;;19.85;59.08
48926;BME280;39838;59.938;30.642;2022-07-30T11:53:00;100730.03;;;19.76;59.98
48926;BME280;39838;59.938;30.642;2022-07-30T11:55:31;100727.00;;;19.61;59.81
48926;BME280;39838;59.938;30.642;2022-07-30T11:58:00;100716.56;;;19.57;60.36
48926;BME280;39838;59.938;30.642;2022-07-30T12:00:33;100722.97;;;19.50;61.54
48926;BME280;39838;59.938;30.642;2022-07-30T12:03:06;100717.69;;;19.50;62.27
48926;BME280;39838;59.938;30.642;2022-07-30T12:05:34;100721.03;;;19.55;62.42
48926;BME280;39838;59.938;30.642;2022-07-30T12:08:01;100719.94;;;19.62;62.05
48926;BME280;39838;59.938;30.642;2022-07-30T12:10:31;100733.97;;;19.62;60.89
48926;BME280;39838;59.938;30.642;2022-07-30T12:13:08;100735.00;;;19.57;60.08
48926;BME280;39838;59.938;30.642;2022-07-30T12:15:37;100734.22;;;19.55;59.71
48926;BME280;39838;59.938;30.642;2022-07-30T12:18:04;100734.03;;;19.61;59.66
48926;BME280;39838;59.938;30.642;2022-07-30T12:20:32;100736.97;;;19.78;59.50
48926;BME280;39838;59.938;30.642;2022-07-30T12:23:00;100720.28;;;20.03;59.14
48926;BME280;39838;59.938;30.642;2022-07-30T12:25:28;100723.88;;;20.25;57.78
48926;BME280;39838;59.938;30.642;2022-07-30T12:27:57;100727.75;;;20.40;56.75
48926;BME280;39838;59.938;30.642;2022-07-30T12:30:24;100718.81;;;20.67;56.10
48926;BME280;39838;59.938;30.642;2022-07-30T12:32:52;100716.19;;;21.11;55.32
48926;BME280;39838;59.938;30.642;2022-07-30T12:35:19;100724.50;;;21.46;53.93
48926;BME280;39838;59.938;30.642;2022-07-30T12:38:11;100723.00;;;22.01;53.62
48926;BME280;39838;59.938;30.642;2022-07-30T12:40:57;100730.06;;;22.60;52.27
48926;BME280;39838;59.938;30.642;2022-07-30T12:43:45;100706.19;;;23.00;49.67
48926;BME280;39838;59.938;30.642;2022-07-30T12:46:14;100687.31;;;23.42;48.80
48926;BME280;39838;59.938;30.642;2022-07-30T12:48:52;100719.09;;;24.29;46.39
48926;BME280;39838;59.938;30.642;2022-07-30T12:51:21;100717.13;;;24.32;46.01
48926;BME280;39838;59.938;30.642;2022-07-30T12:53:48;100719.09;;;24.62;45.76
48926;BME280;39838;59.938;30.642;2022-07-30T12:56:17;100722.34;;;24.98;44.45
48926;BME280;39838;59.938;30.642;2022-07-30T12:58:46;100725.81;;;25.46;43.77
48926;BME280;39838;59.938;30.642;2022-07-30T13:01:44;100718.47;;;25.66;43.10
48926;BME280;39838;59.938;30.642;2022-07-30T13:04:12;100716.69;;;25.96;42.65